Saturday, May 26, 2018, 6:15 AM EDT
Back to Local

KBML, Berlin Municipal Airport

Location: Milan, NH, United States Lat: 44.583
Local Time: 6:15 AM EDT (10:15 GMT) Lon: -71.183
Time Zone: US/Eastern Elev: 1158 ft

Show me the last for .
Show Decoded

2018-05-26 05:52 METAR KBML 260952Z AUTO 00000KT 10SM SCT049 OVC070 17/14 A2971 RMK AO2 SLP057
                 T01670144 =
2018-05-26 04:52 METAR KBML 260852Z AUTO 00000KT 10SM BKN042 OVC070 17/14 A2970 RMK AO2 SLP053
                 T01720144 55003 =
2018-05-26 03:52 METAR KBML 260752Z AUTO 00000KT 10SM SCT046 BKN070 OVC100 18/13 A2969 RMK AO2
                 SLP048 T01830133 =
2018-05-26 02:52 METAR KBML 260652Z AUTO 15004KT 10SM FEW040 BKN046 OVC120 18/14 A2970 RMK AO2
                 SLP050 T01830139 =
2018-05-26 01:52 METAR KBML 260552Z AUTO 13004KT 10SM BKN041 OVC049 18/14 A2971 RMK AO2 SLP055
                 60000 T01780139 10233 20178 58004 =
2018-05-26 00:52 METAR KBML 260452Z AUTO 14003KT 10SM FEW034 BKN070 OVC110 19/14 A2972 RMK AO2
                 RAB0353E26 SLP060 P0000 T01890144 402890028 =
2018-05-25 23:52 METAR KBML 260352Z AUTO VRB06G21KT 10SM BKN039 OVC075 21/13 A2974 RMK AO2 SLP063
                 T02110133 =
2018-05-25 22:52 METAR KBML 260252Z AUTO 27007G21KT 200V310 10SM FEW075 OVC110 22/12 A2972 RMK
                 AO2 SLP058 T02220122 53003 =
2018-05-25 21:52 METAR KBML 260152Z AUTO VRB05KT 10SM BKN046 BKN055 BKN120 23/13 A2972 RMK AO2
                 SLP058 T02280128 =
2018-05-25 20:52 METAR KBML 260052Z AUTO 28008KT 240V310 10SM SCT060 23/13 A2971 RMK AO2 SLP055
                 T02330128 =
2018-05-25 19:52 METAR KBML 252352Z AUTO VRB03KT 10SM CLR 23/13 A2971 RMK AO2 SLP056 T02330128
                 10278 20233 55000 =
2018-05-25 18:52 METAR KBML 252252Z AUTO 27007KT 250V310 10SM BKN050 BKN070 24/13 A2970 RMK AO2
                 SLP055 T02390128 =
2018-05-25 17:52 METAR KBML 252152Z AUTO VRB03KT 10SM BKN049 OVC060 24/13 A2970 RMK AO2 SLP060
                 T02440128 =
2018-05-25 16:52 METAR KBML 252052Z AUTO 28011G19KT 210V310 10SM OVC055 25/12 A2971 RMK AO2
                 SLP062 T02500117 58003 =
2018-05-25 15:52 METAR KBML 251952Z AUTO 27009G17KT 230V310 10SM OVC060 26/12 A2972 RMK AO2
                 SLP063 T02560117 =
2018-05-25 14:52 METAR KBML 251852Z AUTO 27009G20KT 240V340 10SM BKN070 27/11 A2972 RMK AO2
                 SLP064 T02670106 =
2018-05-25 13:52 METAR KBML 251752Z AUTO 28008G22KT 210V360 10SM BKN075 27/11 A2972 RMK AO2 PK
                 WND 29027/1658 SLP064 T02720106 10289 20206 56022 =
2018-05-25 12:52 METAR KBML 251652Z AUTO 29009G21KT 260V360 10SM CLR 28/10 A2974 RMK AO2 SLP068
                 T02830100 =
2018-05-25 11:52 METAR KBML 251552Z AUTO 26010G20KT 210V300 10SM CLR 27/11 A2976 RMK AO2 PK WND
                 30026/1508 SLP078 T02720106 =
2018-05-25 10:52 METAR KBML 251452Z AUTO 30007G22KT 250V010 10SM CLR 25/10 A2979 RMK AO2 SLP086
                 T02500100 56014 =
2018-05-25 09:52 METAR KBML 251352Z AUTO 10SM CLR 23/09 A2980 RMK AO2 SLP091 T02330094 =
2018-05-25 08:52 METAR KBML 251252Z AUTO 27009G20KT 220V330 10SM CLR 23/08 A2981 RMK AO2 SLP095
                 T02280083 =
2018-05-25 07:52 METAR KBML 251152Z AUTO 00000KT 10SM CLR 21/08 A2983 RMK AO2 SLP099 T02060078
                 10206 20028 58010 =
2018-05-25 06:52 METAR KBML 251052Z AUTO 00000KT 10SM CLR 11/08 A2986 RMK AO2 SLP110 T01110078 =

Support USWX by starting your Amazon purchase here.